Terminal Aerodrome Forecast
Issued by NWS

Home | Current Version | Previous Version | Text Only | Print | Product List | Glossary Off
Versions: 1 2 3 4 5 6 7 8 9 10 11 12 13 14 15 16 17 18 19 20 21 22 23 24 25 26 27 28 29 30 31 32 33 34 35 36 37 38

000
FTUS43 KLOT 131600 AAB
TAFMDW
TAF AMD
KMDW 131605Z 1316/1412 23008KT P6SM BKN090 BKN250
     FM131700 04009KT 6SM BR SCT007 BKN090
     FM131800 05010KT 6SM BR BKN007 BKN090
     FM131900 06010KT 3SM -SHRA BR BKN007 BKN025
      TEMPO 1320/1323 2SM -TSRA BR OVC007CB
     FM132300 08010KT 3SM SHRA BR OVC007
      TEMPO 1323/1401 2SM -TSRA OVC015CB
     FM140100 23012G18KT 4SM SHRA VCTS OVC009CB
     FM140700 36018G30KT 4SM RA BR OVC009=

USA.gov is the U.S. government's official web portal to all federal, state and local government web resources and services.